sensor_id;sensor_type;location;lat;lon;timestamp;temperature;humidity
5631;DHT22;2837;50.990;7.124;2023-05-07T05:03:06;14.30;99.90
5631;DHT22;2837;50.990;7.124;2023-05-07T05:05:32;14.80;99.90
5631;DHT22;2837;50.990;7.124;2023-05-07T05:07:58;14.60;99.90
5631;DHT22;2837;50.990;7.124;2023-05-07T05:10:23;14.80;99.90
5631;DHT22;2837;50.990;7.124;2023-05-07T05:12:49;14.40;99.90
5631;DHT22;2837;50.990;7.124;2023-05-07T05:15:15;14.80;99.90
5631;DHT22;2837;50.990;7.124;2023-05-07T05:17:40;14.70;99.90
5631;DHT22;2837;50.990;7.124;2023-05-07T05:20:06;14.70;99.90
5631;DHT22;2837;50.990;7.124;2023-05-07T05:22:32;14.50;99.90
5631;DHT22;2837;50.990;7.124;2023-05-07T05:24:58;15.30;99.90
5631;DHT22;2837;50.990;7.124;2023-05-07T05:27:24;14.90;99.90
5631;DHT22;2837;50.990;7.124;2023-05-07T05:29:50;14.60;99.90
5631;DHT22;2837;50.990;7.124;2023-05-07T05:32:16;15.00;99.90
5631;DHT22;2837;50.990;7.124;2023-05-07T05:34:41;15.20;99.90
5631;DHT22;2837;50.990;7.124;2023-05-07T05:37:07;14.70;99.90
5631;DHT22;2837;50.990;7.124;2023-05-07T05:39:33;15.20;99.90
5631;DHT22;2837;50.990;7.124;2023-05-07T05:41:59;14.80;99.90
5631;DHT22;2837;50.990;7.124;2023-05-07T05:44:25;15.40;99.90
5631;DHT22;2837;50.990;7.124;2023-05-07T05:46:50;14.40;99.90
5631;DHT22;2837;50.990;7.124;2023-05-07T05:49:16;14.90;99.90
5631;DHT22;2837;50.990;7.124;2023-05-07T05:51:42;15.00;99.90
5631;DHT22;2837;50.990;7.124;2023-05-07T05:54:08;14.90;99.90
5631;DHT22;2837;50.990;7.124;2023-05-07T05:56:34;14.90;99.90
5631;DHT22;2837;50.990;7.124;2023-05-07T05:58:59;16.20;99.90
5631;DHT22;2837;50.990;7.124;2023-05-07T06:01:28;15.00;99.90
5631;DHT22;2837;50.990;7.124;2023-05-07T06:03:54;14.90;99.90
5631;DHT22;2837;50.990;7.124;2023-05-07T06:06:20;15.00;99.90
5631;DHT22;2837;50.990;7.124;2023-05-07T06:08:45;15.10;99.90
5631;DHT22;2837;50.990;7.124;2023-05-07T06:11:11;16.30;99.90
5631;DHT22;2837;50.990;7.124;2023-05-07T06:13:39;15.20;99.90
5631;DHT22;2837;50.990;7.124;2023-05-07T06:16:06;15.10;99.90
5631;DHT22;2837;50.990;7.124;2023-05-07T06:18:31;15.20;99.90
5631;DHT22;2837;50.990;7.124;2023-05-07T06:20:57;15.10;99.90
5631;DHT22;2837;50.990;7.124;2023-05-07T06:23:23;15.20;99.90
5631;DHT22;2837;50.990;7.124;2023-05-07T06:25:49;15.90;99.90
5631;DHT22;2837;50.990;7.124;2023-05-07T06:28:18;15.30;99.90
5631;DHT22;2837;50.990;7.124;2023-05-07T06:30:44;15.30;99.90
5631;DHT22;2837;50.990;7.124;2023-05-07T06:33:10;15.40;99.90
5631;DHT22;2837;50.990;7.124;2023-05-07T06:35:36;15.20;99.90
5631;DHT22;2837;50.990;7.124;2023-05-07T06:38:01;15.30;99.90
5631;DHT22;2837;50.990;7.124;2023-05-07T06:40:27;15.50;99.90
5631;DHT22;2837;50.990;7.124;2023-05-07T06:42:53;16.00;99.90
5631;DHT22;2837;50.990;7.124;2023-05-07T06:45:19;15.70;99.90
5631;DHT22;2837;50.990;7.124;2023-05-07T06:47:45;15.70;99.90
5631;DHT22;2837;50.990;7.124;2023-05-07T06:50:10;15.50;99.90
5631;DHT22;2837;50.990;7.124;2023-05-07T06:52:36;15.40;99.90
5631;DHT22;2837;50.990;7.124;2023-05-07T06:55:01;15.80;99.90
5631;DHT22;2837;50.990;7.124;2023-05-07T06:57:27;15.50;99.90
5631;DHT22;2837;50.990;7.124;2023-05-07T06:59:53;15.50;99.90
5631;DHT22;2837;50.990;7.124;2023-05-07T07:02:18;15.70;99.90
5631;DHT22;2837;50.990;7.124;2023-05-07T07:04:44;15.60;99.90
5631;DHT22;2837;50.990;7.124;2023-05-07T07:07:10;15.50;99.90
5631;DHT22;2837;50.990;7.124;2023-05-07T07:09:35;15.50;99.90
5631;DHT22;2837;50.990;7.124;2023-05-07T07:12:01;15.70;99.90
5631;DHT22;2837;50.990;7.124;2023-05-07T07:14:26;15.60;99.90
5631;DHT22;2837;50.990;7.124;2023-05-07T07:16:52;15.60;99.90
5631;DHT22;2837;50.990;7.124;2023-05-07T07:19:18;15.70;99.90
5631;DHT22;2837;50.990;7.124;2023-05-07T07:21:45;15.80;99.90
5631;DHT22;2837;50.990;7.124;2023-05-07T07:24:11;15.80;99.90
5631;DHT22;2837;50.990;7.124;2023-05-07T07:26:36;15.50;99.90
5631;DHT22;2837;50.990;7.124;2023-05-07T07:29:02;15.70;99.90
5631;DHT22;2837;50.990;7.124;2023-05-07T07:31:28;15.70;99.90
5631;DHT22;2837;50.990;7.124;2023-05-07T07:33:53;16.10;99.90
5631;DHT22;2837;50.990;7.124;2023-05-07T07:36:19;16.10;99.90
5631;DHT22;2837;50.990;7.124;2023-05-07T07:38:45;16.00;99.90
5631;DHT22;2837;50.990;7.124;2023-05-07T07:41:10;16.20;99.90
5631;DHT22;2837;50.990;7.124;2023-05-07T07:43:36;16.10;99.90
5631;DHT22;2837;50.990;7.124;2023-05-07T07:46:02;16.30;99.90
5631;DHT22;2837;50.990;7.124;2023-05-07T07:48:28;16.00;99.90
5631;DHT22;2837;50.990;7.124;2023-05-07T07:50:53;16.30;99.90
5631;DHT22;2837;50.990;7.124;2023-05-07T07:53:19;16.20;99.90
5631;DHT22;2837;50.990;7.124;2023-05-07T07:55:45;16.00;99.90
5631;DHT22;2837;50.990;7.124;2023-05-07T07:58:11;16.00;99.90
5631;DHT22;2837;50.990;7.124;2023-05-07T08:00:36;16.30;99.90
5631;DHT22;2837;50.990;7.124;2023-05-07T08:03:02;16.00;99.90
5631;DHT22;2837;50.990;7.124;2023-05-07T08:05:29;16.00;99.90
5631;DHT22;2837;50.990;7.124;2023-05-07T08:07:55;16.00;99.90
5631;DHT22;2837;50.990;7.124;2023-05-07T08:10:21;16.20;99.90
5631;DHT22;2837;50.990;7.124;2023-05-07T08:12:50;16.20;99.90
5631;DHT22;2837;50.990;7.124;2023-05-07T08:15:16;16.20;99.90
5631;DHT22;2837;50.990;7.124;2023-05-07T08:17:42;16.20;99.90
5631;DHT22;2837;50.990;7.124;2023-05-07T08:20:09;16.30;99.90
5631;DHT22;2837;50.990;7.124;2023-05-07T08:22:35;16.30;99.90
5631;DHT22;2837;50.990;7.124;2023-05-07T08:25:01;16.30;99.90
5631;DHT22;2837;50.990;7.124;2023-05-07T08:27:27;16.40;99.90
5631;DHT22;2837;50.990;7.124;2023-05-07T08:29:53;16.70;99.90
5631;DHT22;2837;50.990;7.124;2023-05-07T08:32:19;16.40;99.90
5631;DHT22;2837;50.990;7.124;2023-05-07T08:34:44;16.70;99.90
5631;DHT22;2837;50.990;7.124;2023-05-07T08:37:10;16.50;99.90
5631;DHT22;2837;50.990;7.124;2023-05-07T08:39:36;16.70;99.90
5631;DHT22;2837;50.990;7.124;2023-05-07T08:42:03;16.80;99.90
5631;DHT22;2837;50.990;7.124;2023-05-07T08:44:33;16.60;99.90
5631;DHT22;2837;50.990;7.124;2023-05-07T08:47:01;16.60;99.90
5631;DHT22;2837;50.990;7.124;2023-05-07T08:49:27;16.80;99.90
5631;DHT22;2837;50.990;7.124;2023-05-07T08:51:53;16.70;99.90
5631;DHT22;2837;50.990;7.124;2023-05-07T08:54:20;16.70;99.90
5631;DHT22;2837;50.990;7.124;2023-05-07T08:56:46;17.10;99.90
5631;DHT22;2837;50.990;7.124;2023-05-07T08:59:12;17.10;99.90
5631;DHT22;2837;50.990;7.124;2023-05-07T09:01:38;16.80;99.90
5631;DHT22;2837;50.990;7.124;2023-05-07T09:04:04;16.90;99.90
5631;DHT22;2837;50.990;7.124;2023-05-07T09:06:31;16.90;99.90
5631;DHT22;2837;50.990;7.124;2023-05-07T09:08:56;16.90;99.90
5631;DHT22;2837;50.990;7.124;2023-05-07T09:11:24;16.90;99.90
5631;DHT22;2837;50.990;7.124;2023-05-07T09:13:54;16.90;99.90
5631;DHT22;2837;50.990;7.124;2023-05-07T09:16:21;16.90;99.90
5631;DHT22;2837;50.990;7.124;2023-05-07T09:18:51;17.00;99.90
5631;DHT22;2837;50.990;7.124;2023-05-07T09:21:18;17.00;99.90
5631;DHT22;2837;50.990;7.124;2023-05-07T09:23:44;17.20;99.90
5631;DHT22;2837;50.990;7.124;2023-05-07T09:26:10;17.00;99.90
5631;DHT22;2837;50.990;7.124;2023-05-07T09:28:41;17.10;99.90
5631;DHT22;2837;50.990;7.124;2023-05-07T09:31:08;17.00;99.90
5631;DHT22;2837;50.990;7.124;2023-05-07T09:33:33;16.90;99.90
5631;DHT22;2837;50.990;7.124;2023-05-07T09:36:03;16.90;99.90
5631;DHT22;2837;50.990;7.124;2023-05-07T09:38:29;16.80;99.90
5631;DHT22;2837;50.990;7.124;2023-05-07T09:41:03;16.80;99.90
5631;DHT22;2837;50.990;7.124;2023-05-07T09:43:35;16.90;99.90
5631;DHT22;2837;50.990;7.124;2023-05-07T09:46:11;17.00;99.90
5631;DHT22;2837;50.990;7.124;2023-05-07T09:48:41;17.00;99.90
5631;DHT22;2837;50.990;7.124;2023-05-07T09:51:29;17.10;99.90
5631;DHT22;2837;50.990;7.124;2023-05-07T09:53:57;17.00;99.90
5631;DHT22;2837;50.990;7.124;2023-05-07T09:56:26;17.00;99.90
5631;DHT22;2837;50.990;7.124;2023-05-07T09:58:54;17.10;99.90
5631;DHT22;2837;50.990;7.124;2023-05-07T10:01:21;17.10;99.90
5631;DHT22;2837;50.990;7.124;2023-05-07T10:03:49;17.10;99.90
5631;DHT22;2837;50.990;7.124;2023-05-07T10:06:15;17.10;99.90
5631;DHT22;2837;50.990;7.124;2023-05-07T10:08:44;17.20;99.90
5631;DHT22;2837;50.990;7.124;2023-05-07T10:11:11;17.20;99.90
5631;DHT22;2837;50.990;7.124;2023-05-07T10:13:37;17.20;99.90
5631;DHT22;2837;50.990;7.124;2023-05-07T10:16:06;17.10;99.90
5631;DHT22;2837;50.990;7.124;2023-05-07T10:18:33;17.30;99.90
5631;DHT22;2837;50.990;7.124;2023-05-07T10:21:18;17.30;99.90
5631;DHT22;2837;50.990;7.124;2023-05-07T10:23:49;17.30;99.90
5631;DHT22;2837;50.990;7.124;2023-05-07T10:26:15;17.30;99.90
5631;DHT22;2837;50.990;7.124;2023-05-07T10:28:45;17.30;99.90
5631;DHT22;2837;50.990;7.124;2023-05-07T10:34:03;17.40;99.90
5631;DHT22;2837;50.990;7.124;2023-05-07T10:36:33;17.40;99.90
5631;DHT22;2837;50.990;7.124;2023-05-07T10:38:59;17.40;99.90
5631;DHT22;2837;50.990;7.124;2023-05-07T10:41:25;17.40;99.90
5631;DHT22;2837;50.990;7.124;2023-05-07T10:43:51;17.40;99.90
5631;DHT22;2837;50.990;7.124;2023-05-07T10:46:18;17.30;99.90
5631;DHT22;2837;50.990;7.124;2023-05-07T10:51:29;17.30;99.90
5631;DHT22;2837;50.990;7.124;2023-05-07T10:56:40;17.30;99.90
5631;DHT22;2837;50.990;7.124;2023-05-07T11:02:00;17.40;99.90
5631;DHT22;2837;50.990;7.124;2023-05-07T11:04:28;17.50;99.90
5631;DHT22;2837;50.990;7.124;2023-05-07T11:15:11;17.90;99.90
5631;DHT22;2837;50.990;7.124;2023-05-07T11:17:54;18.00;99.90
5631;DHT22;2837;50.990;7.124;2023-05-07T11:20:20;18.00;99.90
5631;DHT22;2837;50.990;7.124;2023-05-07T11:22:46;18.00;99.90
5631;DHT22;2837;50.990;7.124;2023-05-07T11:25:17;17.90;99.90
5631;DHT22;2837;50.990;7.124;2023-05-07T11:27:44;18.10;99.90
5631;DHT22;2837;50.990;7.124;2023-05-07T11:30:11;18.10;99.90
5631;DHT22;2837;50.990;7.124;2023-05-07T11:32:41;18.00;99.90
5631;DHT22;2837;50.990;7.124;2023-05-07T11:35:10;17.80;99.90
5631;DHT22;2837;50.990;7.124;2023-05-07T11:37:36;17.90;99.90
5631;DHT22;2837;50.990;7.124;2023-05-07T11:40:07;18.10;99.90
5631;DHT22;2837;50.990;7.124;2023-05-07T11:42:34;18.10;99.90
5631;DHT22;2837;50.990;7.124;2023-05-07T11:45:00;18.20;99.90
5631;DHT22;2837;50.990;7.124;2023-05-07T11:47:26;18.20;99.90
5631;DHT22;2837;50.990;7.124;2023-05-07T11:49:55;18.10;99.90
5631;DHT22;2837;50.990;7.124;2023-05-07T11:52:22;18.00;99.90
5631;DHT22;2837;50.990;7.124;2023-05-07T11:54:52;18.20;99.90
5631;DHT22;2837;50.990;7.124;2023-05-07T11:57:18;18.30;99.90
5631;DHT22;2837;50.990;7.124;2023-05-07T11:59:44;18.10;99.90
5631;DHT22;2837;50.990;7.124;2023-05-07T12:02:10;18.10;99.90
5631;DHT22;2837;50.990;7.124;2023-05-07T12:04:38;18.10;99.90
5631;DHT22;2837;50.990;7.124;2023-05-07T12:07:03;18.10;99.90
5631;DHT22;2837;50.990;7.124;2023-05-07T12:09:29;18.20;99.90
5631;DHT22;2837;50.990;7.124;2023-05-07T12:11:55;18.20;99.90
5631;DHT22;2837;50.990;7.124;2023-05-07T12:14:21;18.40;99.90
5631;DHT22;2837;50.990;7.124;2023-05-07T12:16:47;18.20;99.90
5631;DHT22;2837;50.990;7.124;2023-05-07T12:19:13;18.30;99.90
5631;DHT22;2837;50.990;7.124;2023-05-07T12:21:39;18.20;99.90
5631;DHT22;2837;50.990;7.124;2023-05-07T12:24:05;18.10;99.90
5631;DHT22;2837;50.990;7.124;2023-05-07T12:26:31;18.10;99.90
5631;DHT22;2837;50.990;7.124;2023-05-07T12:28:59;18.00;99.90
5631;DHT22;2837;50.990;7.124;2023-05-07T12:31:26;18.00;99.90
5631;DHT22;2837;50.990;7.124;2023-05-07T12:33:52;17.90;99.90
5631;DHT22;2837;50.990;7.124;2023-05-07T12:36:18;17.90;99.90
5631;DHT22;2837;50.990;7.124;2023-05-07T12:38:43;18.10;99.90
5631;DHT22;2837;50.990;7.124;2023-05-07T12:41:10;18.00;99.90
5631;DHT22;2837;50.990;7.124;2023-05-07T12:43:37;17.90;99.90
5631;DHT22;2837;50.990;7.124;2023-05-07T12:46:06;17.90;99.90
5631;DHT22;2837;50.990;7.124;2023-05-07T12:48:32;17.80;99.90
5631;DHT22;2837;50.990;7.124;2023-05-07T12:50:59;17.80;99.90
5631;DHT22;2837;50.990;7.124;2023-05-07T12:53:26;17.80;99.90
5631;DHT22;2837;50.990;7.124;2023-05-07T12:55:54;18.00;99.90
5631;DHT22;2837;50.990;7.124;2023-05-07T12:58:26;17.90;99.90
5631;DHT22;2837;50.990;7.124;2023-05-07T13:00:56;18.00;99.90
5631;DHT22;2837;50.990;7.124;2023-05-07T13:03:29;17.90;99.90
5631;DHT22;2837;50.990;7.124;2023-05-07T13:05:57;17.90;99.90
5631;DHT22;2837;50.990;7.124;2023-05-07T13:10:53;17.80;99.90
5631;DHT22;2837;50.990;7.124;2023-05-07T13:13:19;17.80;99.90
5631;DHT22;2837;50.990;7.124;2023-05-07T13:15:45;17.90;99.90
5631;DHT22;2837;50.990;7.124;2023-05-07T13:18:11;17.90;99.90
5631;DHT22;2837;50.990;7.124;2023-05-07T13:20:37;17.90;99.90
5631;DHT22;2837;50.990;7.124;2023-05-07T13:23:02;17.90;99.90
5631;DHT22;2837;50.990;7.124;2023-05-07T13:25:30;17.90;99.90
5631;DHT22;2837;50.990;7.124;2023-05-07T13:27:56;18.10;99.90
5631;DHT22;2837;50.990;7.124;2023-05-07T13:30:22;17.80;99.90
5631;DHT22;2837;50.990;7.124;2023-05-07T13:32:48;17.80;99.90
5631;DHT22;2837;50.990;7.124;2023-05-07T13:35:14;18.00;99.90
5631;DHT22;2837;50.990;7.124;2023-05-07T13:37:40;18.00;99.90
5631;DHT22;2837;50.990;7.124;2023-05-07T13:40:06;18.00;99.90
5631;DHT22;2837;50.990;7.124;2023-05-07T13:42:32;17.90;99.90
5631;DHT22;2837;50.990;7.124;2023-05-07T13:44:57;17.90;99.90
5631;DHT22;2837;50.990;7.124;2023-05-07T13:47:23;18.30;99.90
5631;DHT22;2837;50.990;7.124;2023-05-07T13:49:48;17.90;99.90
5631;DHT22;2837;50.990;7.124;2023-05-07T13:52:17;18.10;99.90
5631;DHT22;2837;50.990;7.124;2023-05-07T13:54:43;18.00;99.90
5631;DHT22;2837;50.990;7.124;2023-05-07T13:57:08;18.10;99.90
5631;DHT22;2837;50.990;7.124;2023-05-07T13:59:34;18.20;99.90
5631;DHT22;2837;50.990;7.124;2023-05-07T14:02:00;18.30;99.90
5631;DHT22;2837;50.990;7.124;2023-05-07T14:04:28;18.30;99.90
5631;DHT22;2837;50.990;7.124;2023-05-07T14:06:54;18.20;99.90
5631;DHT22;2837;50.990;7.124;2023-05-07T14:09:19;18.20;99.90
5631;DHT22;2837;50.990;7.124;2023-05-07T14:11:45;18.20;99.90
5631;DHT22;2837;50.990;7.124;2023-05-07T14:14:12;18.60;99.90
5631;DHT22;2837;50.990;7.124;2023-05-07T14:16:38;18.30;99.90
5631;DHT22;2837;50.990;7.124;2023-05-07T14:19:03;18.40;99.90
5631;DHT22;2837;50.990;7.124;2023-05-07T14:21:29;18.40;99.90
5631;DHT22;2837;50.990;7.124;2023-05-07T14:23:56;18.30;99.90
5631;DHT22;2837;50.990;7.124;2023-05-07T14:26:21;18.30;99.90
5631;DHT22;2837;50.990;7.124;2023-05-07T14:28:48;18.20;99.90
5631;DHT22;2837;50.990;7.124;2023-05-07T14:31:14;18.10;99.90
5631;DHT22;2837;50.990;7.124;2023-05-07T14:33:40;18.00;99.90
5631;DHT22;2837;50.990;7.124;2023-05-07T14:36:06;17.80;99.90
5631;DHT22;2837;50.990;7.124;2023-05-07T14:38:31;17.70;99.90
5631;DHT22;2837;50.990;7.124;2023-05-07T14:40:58;17.50;99.90
5631;DHT22;2837;50.990;7.124;2023-05-07T14:43:24;17.50;99.90
5631;DHT22;2837;50.990;7.124;2023-05-07T14:45:49;17.30;99.90
5631;DHT22;2837;50.990;7.124;2023-05-07T14:48:15;17.30;99.90
5631;DHT22;2837;50.990;7.124;2023-05-07T14:50:46;16.80;99.90
5631;DHT22;2837;50.990;7.124;2023-05-07T14:53:11;16.40;99.90
5631;DHT22;2837;50.990;7.124;2023-05-07T14:55:37;16.20;99.90
5631;DHT22;2837;50.990;7.124;2023-05-07T14:58:03;16.20;99.90
5631;DHT22;2837;50.990;7.124;2023-05-07T15:00:28;15.90;99.90
5631;DHT22;2837;50.990;7.124;2023-05-07T15:02:56;15.70;99.90
5631;DHT22;2837;50.990;7.124;2023-05-07T15:05:28;15.60;99.90
5631;DHT22;2837;50.990;7.124;2023-05-07T15:07:53;15.60;99.90
5631;DHT22;2837;50.990;7.124;2023-05-07T15:10:19;15.60;99.90
5631;DHT22;2837;50.990;7.124;2023-05-07T15:12:44;15.70;99.90
5631;DHT22;2837;50.990;7.124;2023-05-07T15:15:10;15.70;99.90
5631;DHT22;2837;50.990;7.124;2023-05-07T15:17:36;15.80;99.90
5631;DHT22;2837;50.990;7.124;2023-05-07T15:20:01;15.90;99.90
5631;DHT22;2837;50.990;7.124;2023-05-07T15:22:28;15.90;99.90
5631;DHT22;2837;50.990;7.124;2023-05-07T15:24:54;15.90;99.90
5631;DHT22;2837;50.990;7.124;2023-05-07T15:27:22;16.20;99.90
5631;DHT22;2837;50.990;7.124;2023-05-07T15:29:47;16.40;99.90
5631;DHT22;2837;50.990;7.124;2023-05-07T15:32:13;16.10;99.90
5631;DHT22;2837;50.990;7.124;2023-05-07T15:34:39;16.30;99.90
5631;DHT22;2837;50.990;7.124;2023-05-07T15:37:04;16.10;99.90
5631;DHT22;2837;50.990;7.124;2023-05-07T15:39:30;16.10;99.90
5631;DHT22;2837;50.990;7.124;2023-05-07T15:41:56;16.20;99.90
5631;DHT22;2837;50.990;7.124;2023-05-07T15:44:21;16.10;99.90
5631;DHT22;2837;50.990;7.124;2023-05-07T15:47:06;16.30;99.90
5631;DHT22;2837;50.990;7.124;2023-05-07T15:49:40;16.10;99.90
5631;DHT22;2837;50.990;7.124;2023-05-07T15:52:14;16.20;99.90
5631;DHT22;2837;50.990;7.124;2023-05-07T15:54:44;16.20;99.90
5631;DHT22;2837;50.990;7.124;2023-05-07T15:57:30;16.20;99.90
5631;DHT22;2837;50.990;7.124;2023-05-07T15:59:56;16.20;99.90
5631;DHT22;2837;50.990;7.124;2023-05-07T16:02:22;16.50;99.90
5631;DHT22;2837;50.990;7.124;2023-05-07T16:04:48;16.60;99.90
5631;DHT22;2837;50.990;7.124;2023-05-07T16:07:13;16.30;99.90
5631;DHT22;2837;50.990;7.124;2023-05-07T16:09:39;16.30;99.90
5631;DHT22;2837;50.990;7.124;2023-05-07T16:12:05;16.30;99.90
5631;DHT22;2837;50.990;7.124;2023-05-07T16:14:30;16.30;99.90
5631;DHT22;2837;50.990;7.124;2023-05-07T16:16:56;16.50;99.90
5631;DHT22;2837;50.990;7.124;2023-05-07T16:19:21;16.90;99.90
5631;DHT22;2837;50.990;7.124;2023-05-07T16:21:48;16.30;99.90
5631;DHT22;2837;50.990;7.124;2023-05-07T16:24:14;16.40;99.90
5631;DHT22;2837;50.990;7.124;2023-05-07T16:26:39;16.40;99.90
5631;DHT22;2837;50.990;7.124;2023-05-07T16:29:05;17.00;99.90
5631;DHT22;2837;50.990;7.124;2023-05-07T16:31:31;16.50;99.90
5631;DHT22;2837;50.990;7.124;2023-05-07T16:33:59;16.50;99.90
5631;DHT22;2837;50.990;7.124;2023-05-07T16:36:30;17.00;99.90
5631;DHT22;2837;50.990;7.124;2023-05-07T16:38:58;16.70;99.90
5631;DHT22;2837;50.990;7.124;2023-05-07T16:41:24;16.60;99.90
5631;DHT22;2837;50.990;7.124;2023-05-07T16:43:50;17.10;99.90
5631;DHT22;2837;50.990;7.124;2023-05-07T16:46:16;16.70;99.90
5631;DHT22;2837;50.990;7.124;2023-05-07T16:48:41;16.70;99.90
5631;DHT22;2837;50.990;7.124;2023-05-07T16:51:09;16.60;99.90
5631;DHT22;2837;50.990;7.124;2023-05-07T16:53:35;17.10;99.90
5631;DHT22;2837;50.990;7.124;2023-05-07T16:56:04;16.60;99.90
5631;DHT22;2837;50.990;7.124;2023-05-07T16:58:30;16.60;99.90
5631;DHT22;2837;50.990;7.124;2023-05-07T17:00:57;16.50;99.90
5631;DHT22;2837;50.990;7.124;2023-05-07T17:03:23;16.90;99.90
5631;DHT22;2837;50.990;7.124;2023-05-07T17:05:49;17.00;99.90
5631;DHT22;2837;50.990;7.124;2023-05-07T17:08:14;16.50;99.90
5631;DHT22;2837;50.990;7.124;2023-05-07T17:10:40;17.20;99.90
5631;DHT22;2837;50.990;7.124;2023-05-07T17:13:06;17.00;99.90
5631;DHT22;2837;50.990;7.124;2023-05-07T17:15:32;16.50;99.90
5631;DHT22;2837;50.990;7.124;2023-05-07T17:17:57;16.50;99.90
5631;DHT22;2837;50.990;7.124;2023-05-07T17:20:23;16.50;99.90
5631;DHT22;2837;50.990;7.124;2023-05-07T17:22:49;16.50;99.90
5631;DHT22;2837;50.990;7.124;2023-05-07T17:25:15;16.80;99.90
5631;DHT22;2837;50.990;7.124;2023-05-07T17:27:40;16.60;99.90
5631;DHT22;2837;50.990;7.124;2023-05-07T17:30:06;16.50;99.90
5631;DHT22;2837;50.990;7.124;2023-05-07T17:32:32;16.50;99.90
5631;DHT22;2837;50.990;7.124;2023-05-07T17:34:59;16.80;99.90
5631;DHT22;2837;50.990;7.124;2023-05-07T17:37:25;16.40;99.90
5631;DHT22;2837;50.990;7.124;2023-05-07T17:39:53;16.50;99.90
5631;DHT22;2837;50.990;7.124;2023-05-07T17:42:20;16.90;99.90
5631;DHT22;2837;50.990;7.124;2023-05-07T17:44:46;16.40;99.90
5631;DHT22;2837;50.990;7.124;2023-05-07T17:47:11;16.40;99.90
5631;DHT22;2837;50.990;7.124;2023-05-07T17:49:38;16.60;99.90
5631;DHT22;2837;50.990;7.124;2023-05-07T17:52:04;16.30;99.90
5631;DHT22;2837;50.990;7.124;2023-05-07T17:54:30;16.40;99.90
5631;DHT22;2837;50.990;7.124;2023-05-07T17:56:56;16.40;99.90
5631;DHT22;2837;50.990;7.124;2023-05-07T17:59:23;16.50;99.90
5631;DHT22;2837;50.990;7.124;2023-05-07T18:01:49;16.40;99.90
5631;DHT22;2837;50.990;7.124;2023-05-07T18:04:15;16.60;99.90
5631;DHT22;2837;50.990;7.124;2023-05-07T18:06:40;16.50;99.90
5631;DHT22;2837;50.990;7.124;2023-05-07T18:09:06;16.50;99.90
5631;DHT22;2837;50.990;7.124;2023-05-07T18:11:32;16.60;99.90
5631;DHT22;2837;50.990;7.124;2023-05-07T18:13:59;16.80;99.90
5631;DHT22;2837;50.990;7.124;2023-05-07T18:16:25;16.40;99.90
5631;DHT22;2837;50.990;7.124;2023-05-07T18:18:50;16.20;99.90
5631;DHT22;2837;50.990;7.124;2023-05-07T18:21:16;16.30;99.90
5631;DHT22;2837;50.990;7.124;2023-05-07T18:23:47;16.30;99.90
5631;DHT22;2837;50.990;7.124;2023-05-07T18:26:13;16.10;99.90
5631;DHT22;2837;50.990;7.124;2023-05-07T18:28:39;16.20;99.90
5631;DHT22;2837;50.990;7.124;2023-05-07T18:31:05;16.60;99.90
5631;DHT22;2837;50.990;7.124;2023-05-07T18:33:31;16.20;99.90
5631;DHT22;2837;50.990;7.124;2023-05-07T18:35:56;16.20;99.90
5631;DHT22;2837;50.990;7.124;2023-05-07T18:38:22;16.20;99.90
5631;DHT22;2837;50.990;7.124;2023-05-07T18:40:48;16.20;99.90
5631;DHT22;2837;50.990;7.124;2023-05-07T18:43:13;16.30;99.90
5631;DHT22;2837;50.990;7.124;2023-05-07T18:45:39;16.70;99.90
5631;DHT22;2837;50.990;7.124;2023-05-07T18:48:05;16.60;99.90
5631;DHT22;2837;50.990;7.124;2023-05-07T18:50:32;16.10;99.90
5631;DHT22;2837;50.990;7.124;2023-05-07T18:52:57;16.10;99.90
5631;DHT22;2837;50.990;7.124;2023-05-07T18:55:23;16.20;99.90
5631;DHT22;2837;50.990;7.124;2023-05-07T18:57:49;16.30;99.90
5631;DHT22;2837;50.990;7.124;2023-05-07T19:00:15;16.10;99.90
5631;DHT22;2837;50.990;7.124;2023-05-07T19:02:40;16.10;99.90
5631;DHT22;2837;50.990;7.124;2023-05-07T19:05:06;16.00;99.90
5631;DHT22;2837;50.990;7.124;2023-05-07T19:07:32;16.00;99.90
5631;DHT22;2837;50.990;7.124;2023-05-07T19:09:58;16.00;99.90
5631;DHT22;2837;50.990;7.124;2023-05-07T19:12:23;16.00;99.90
5631;DHT22;2837;50.990;7.124;2023-05-07T19:14:50;15.90;99.90
5631;DHT22;2837;50.990;7.124;2023-05-07T19:17:15;16.00;99.90
5631;DHT22;2837;50.990;7.124;2023-05-07T19:19:41;15.90;99.90
5631;DHT22;2837;50.990;7.124;2023-05-07T19:22:09;16.00;99.90
5631;DHT22;2837;50.990;7.124;2023-05-07T19:24:34;15.90;99.90
5631;DHT22;2837;50.990;7.124;2023-05-07T19:27:01;15.90;99.90
5631;DHT22;2837;50.990;7.124;2023-05-07T19:29:27;15.80;99.90
5631;DHT22;2837;50.990;7.124;2023-05-07T19:31:52;15.90;99.90
5631;DHT22;2837;50.990;7.124;2023-05-07T19:34:18;15.90;99.90
5631;DHT22;2837;50.990;7.124;2023-05-07T19:36:44;15.90;99.90
5631;DHT22;2837;50.990;7.124;2023-05-07T19:39:09;15.90;99.90
5631;DHT22;2837;50.990;7.124;2023-05-07T19:41:35;15.80;99.90
5631;DHT22;2837;50.990;7.124;2023-05-07T19:44:01;16.00;99.90
5631;DHT22;2837;50.990;7.124;2023-05-07T19:46:27;16.10;99.90
5631;DHT22;2837;50.990;7.124;2023-05-07T19:48:53;15.80;99.90
5631;DHT22;2837;50.990;7.124;2023-05-07T19:51:18;15.90;99.90
5631;DHT22;2837;50.990;7.124;2023-05-07T19:53:44;15.70;99.90
5631;DHT22;2837;50.990;7.124;2023-05-07T19:56:10;15.90;99.90
5631;DHT22;2837;50.990;7.124;2023-05-07T19:58:36;15.80;99.90
5631;DHT22;2837;50.990;7.124;2023-05-07T20:01:03;16.20;99.90
5631;DHT22;2837;50.990;7.124;2023-05-07T20:03:31;15.80;99.90
5631;DHT22;2837;50.990;7.124;2023-05-07T20:05:56;15.70;99.90
5631;DHT22;2837;50.990;7.124;2023-05-07T20:08:22;15.90;99.90
5631;DHT22;2837;50.990;7.124;2023-05-07T20:10:49;16.20;99.90
5631;DHT22;2837;50.990;7.124;2023-05-07T20:13:14;15.50;99.90
5631;DHT22;2837;50.990;7.124;2023-05-07T20:15:40;15.70;99.90
5631;DHT22;2837;50.990;7.124;2023-05-07T20:18:06;15.70;99.90
5631;DHT22;2837;50.990;7.124;2023-05-07T20:20:32;16.20;99.90
5631;DHT22;2837;50.990;7.124;2023-05-07T20:22:58;16.10;99.90
5631;DHT22;2837;50.990;7.124;2023-05-07T20:25:24;15.70;99.90
5631;DHT22;2837;50.990;7.124;2023-05-07T20:27:49;15.60;99.90
5631;DHT22;2837;50.990;7.124;2023-05-07T20:30:15;15.70;99.90
5631;DHT22;2837;50.990;7.124;2023-05-07T20:32:43;15.80;99.90
5631;DHT22;2837;50.990;7.124;2023-05-07T20:35:09;15.70;99.90
5631;DHT22;2837;50.990;7.124;2023-05-07T20:37:34;15.60;99.90
5631;DHT22;2837;50.990;7.124;2023-05-07T20:40:00;15.70;99.90
5631;DHT22;2837;50.990;7.124;2023-05-07T20:42:26;15.60;99.90
5631;DHT22;2837;50.990;7.124;2023-05-07T20:44:52;15.70;99.90
5631;DHT22;2837;50.990;7.124;2023-05-07T20:47:18;15.60;99.90
5631;DHT22;2837;50.990;7.124;2023-05-07T20:49:51;15.70;99.90
5631;DHT22;2837;50.990;7.124;2023-05-07T20:52:18;15.50;99.90
5631;DHT22;2837;50.990;7.124;2023-05-07T20:54:43;15.60;99.90
5631;DHT22;2837;50.990;7.124;2023-05-07T20:57:11;15.50;99.90
5631;DHT22;2837;50.990;7.124;2023-05-07T20:59:37;15.60;99.90
